createdAt,value
2023-01-18T00:01:24.926Z,3.36
2023-01-18T00:03:53.436Z,2.83
2023-01-18T00:06:22.217Z,2.54
2023-01-18T00:08:50.354Z,2.45
2023-01-18T00:11:19.392Z,1.97
2023-01-18T00:13:54.422Z,2.80
2023-01-18T00:16:24.293Z,3.06
2023-01-18T00:19:00.456Z,3.25
2023-01-18T00:21:31.927Z,3.31
2023-01-18T00:24:00.464Z,3.40
2023-01-18T00:26:30.853Z,3.23
2023-01-18T00:29:00.545Z,3.51
2023-01-18T00:31:29.314Z,3.64
2023-01-18T00:33:58.254Z,3.70
2023-01-18T00:36:27.075Z,3.60
2023-01-18T00:38:55.771Z,3.31
2023-01-18T00:41:24.267Z,3.64
2023-01-18T00:43:52.461Z,3.67
2023-01-18T00:46:24.548Z,3.75
2023-01-18T00:48:53.721Z,3.60
2023-01-18T00:51:24.531Z,3.62
2023-01-18T00:53:53.097Z,3.67
2023-01-18T00:56:23.410Z,3.62
2023-01-18T00:58:52.166Z,3.52
2023-01-18T01:01:20.574Z,3.49
2023-01-18T01:04:09.794Z,3.66
2023-01-18T01:06:47.683Z,3.81
2023-01-18T01:09:18.755Z,3.73
2023-01-18T01:12:06.604Z,3.80
2023-01-18T01:14:54.164Z,3.63
2023-01-18T01:17:40.059Z,3.65
2023-01-18T01:20:28.918Z,3.50
2023-01-18T01:23:14.903Z,3.87
2023-01-18T01:26:01.014Z,4.02
2023-01-18T01:28:29.679Z,3.83
2023-01-18T01:30:58.731Z,3.76
2023-01-18T01:33:27.665Z,3.83
2023-01-18T01:36:02.208Z,3.84
2023-01-18T01:38:31.401Z,3.09
2023-01-18T01:41:01.350Z,2.74
2023-01-18T01:43:45.378Z,2.77
2023-01-18T01:46:26.663Z,2.53
2023-01-18T01:49:02.319Z,2.94
2023-01-18T01:51:34.334Z,2.46
2023-01-18T01:54:08.512Z,2.65
2023-01-18T01:56:41.392Z,3.08
2023-01-18T01:59:11.390Z,3.08
2023-01-18T02:01:43.983Z,2.90
2023-01-18T02:04:13.592Z,3.22
2023-01-18T02:06:43.755Z,2.93
2023-01-18T02:09:16.226Z,3.23
2023-01-18T02:11:45.223Z,3.49
2023-01-18T02:14:17.092Z,3.58
2023-01-18T02:17:01.994Z,3.67
2023-01-18T02:19:56.576Z,3.81
2023-01-18T02:22:43.547Z,3.75
2023-01-18T02:25:34.754Z,3.66
2023-01-18T02:28:11.273Z,3.73
2023-01-18T02:30:43.588Z,3.43
2023-01-18T02:33:20.881Z,2.94
2023-01-18T02:35:52.944Z,3.05
2023-01-18T02:38:25.577Z,3.15
2023-01-18T02:41:09.793Z,3.28
2023-01-18T02:44:00.288Z,2.76
2023-01-18T02:46:34.869Z,2.90
2023-01-18T02:49:07.535Z,2.55
2023-01-18T02:51:37.131Z,1.82
2023-01-18T02:54:09.661Z,1.74
2023-01-18T02:56:42.847Z,1.62
2023-01-18T02:59:15.259Z,1.58
2023-01-18T03:01:48.902Z,1.67
2023-01-18T03:04:22.548Z,2.37
2023-01-18T03:06:57.554Z,2.87
2023-01-18T03:09:27.585Z,2.88
2023-01-18T03:12:02.421Z,2.78
2023-01-18T03:14:42.061Z,3.05
2023-01-18T03:17:20.768Z,2.93
2023-01-18T03:20:07.397Z,3.14
2023-01-18T03:22:56.918Z,3.40
2023-01-18T03:25:29.494Z,3.51
2023-01-18T03:28:17.960Z,3.42
2023-01-18T03:31:07.776Z,3.49
2023-01-18T03:33:45.890Z,3.25
2023-01-18T03:36:19.725Z,2.32
2023-01-18T03:38:51.743Z,2.44
2023-01-18T03:41:23.892Z,2.91
2023-01-18T03:43:56.398Z,3.06
2023-01-18T03:46:30.548Z,3.38
2023-01-18T03:49:00.119Z,3.20
2023-01-18T03:51:42.701Z,3.38
2023-01-18T03:54:19.298Z,3.43
2023-01-18T03:56:53.798Z,3.33
2023-01-18T03:59:22.772Z,3.42
2023-01-18T04:01:52.494Z,3.22
2023-01-18T04:04:20.860Z,3.09
2023-01-18T04:06:49.887Z,3.05
2023-01-18T04:09:18.748Z,3.26
2023-01-18T04:11:47.542Z,3.31
2023-01-18T04:14:16.225Z,3.24
2023-01-18T04:16:45.145Z,3.31
2023-01-18T04:19:15.000Z,3.07
2023-01-18T04:21:43.547Z,2.93
2023-01-18T04:24:12.815Z,2.87
2023-01-18T04:26:41.809Z,2.82
2023-01-18T04:29:11.919Z,3.19
2023-01-18T04:31:42.025Z,2.97
2023-01-18T04:34:13.330Z,2.47
2023-01-18T04:36:51.998Z,2.40
2023-01-18T04:39:22.630Z,2.46
2023-01-18T04:41:55.229Z,2.63
2023-01-18T04:44:26.239Z,3.10
2023-01-18T04:46:56.249Z,3.01
2023-01-18T04:49:25.906Z,3.24
2023-01-18T04:51:56.004Z,2.50
2023-01-18T04:54:24.465Z,2.64
2023-01-18T04:56:53.760Z,2.60
2023-01-18T04:59:21.993Z,2.60
2023-01-18T05:01:50.160Z,2.81
2023-01-18T05:04:18.925Z,2.41
2023-01-18T05:06:49.135Z,2.60
2023-01-18T05:09:20.173Z,2.38
2023-01-18T05:11:48.560Z,2.24
2023-01-18T05:14:17.013Z,2.40
2023-01-18T05:16:45.477Z,2.14
2023-01-18T05:19:13.544Z,2.05
2023-01-18T05:21:42.697Z,2.59
2023-01-18T05:24:10.981Z,2.22
2023-01-18T05:26:40.652Z,2.46
2023-01-18T05:29:09.072Z,2.47
2023-01-18T05:31:42.103Z,2.63
2023-01-18T05:34:10.415Z,2.86
2023-01-18T05:36:39.080Z,2.61
2023-01-18T05:39:07.314Z,2.68
2023-01-18T05:41:35.934Z,2.49
2023-01-18T05:44:06.247Z,2.52
2023-01-18T05:46:34.650Z,2.39
2023-01-18T05:49:02.846Z,2.49
2023-01-18T05:51:31.214Z,2.77
2023-01-18T05:53:59.409Z,2.63
2023-01-18T05:56:27.793Z,2.71
2023-01-18T05:58:56.012Z,2.90
2023-01-18T06:01:25.768Z,2.82
2023-01-18T06:03:54.517Z,2.79
2023-01-18T06:06:22.892Z,2.66
2023-01-18T06:08:51.469Z,2.66
2023-01-18T06:11:19.849Z,2.49
2023-01-18T06:13:48.529Z,2.54
2023-01-18T06:16:16.657Z,2.78
2023-01-18T06:18:46.730Z,2.69
2023-01-18T06:21:15.419Z,2.82
2023-01-18T06:23:43.700Z,2.57
2023-01-18T06:26:11.855Z,2.53
2023-01-18T06:28:40.252Z,2.64
2023-01-18T06:31:08.878Z,2.86
2023-01-18T06:33:37.204Z,2.75
2023-01-18T06:36:08.171Z,2.70
2023-01-18T06:38:36.565Z,2.90
2023-01-18T06:41:04.986Z,3.18
2023-01-18T06:43:33.198Z,3.24
2023-01-18T06:46:02.905Z,3.64
2023-01-18T06:48:31.075Z,3.45
2023-01-18T06:50:59.318Z,3.60
2023-01-18T06:53:30.671Z,3.25
2023-01-18T06:56:01.953Z,3.35
2023-01-18T06:58:32.920Z,3.09
2023-01-18T07:01:02.260Z,3.49
2023-01-18T07:03:32.630Z,3.05
2023-01-18T07:06:03.214Z,2.94
2023-01-18T07:09:08.183Z,3.04
2023-01-18T07:11:44.047Z,2.39
2023-01-18T07:14:22.355Z,2.11
2023-01-18T07:16:50.967Z,2.46
2023-01-18T07:19:19.876Z,2.48
2023-01-18T07:21:49.694Z,2.17
2023-01-18T07:24:19.859Z,2.21
2023-01-18T07:26:48.696Z,2.68
2023-01-18T07:29:17.113Z,2.33
2023-01-18T07:31:46.537Z,2.27
2023-01-18T07:34:15.060Z,2.78
2023-01-18T07:36:43.344Z,2.86
2023-01-18T07:39:15.425Z,3.44
2023-01-18T07:41:45.221Z,3.43
2023-01-18T07:44:13.936Z,3.44
2023-01-18T07:46:43.569Z,3.80
2023-01-18T07:49:11.732Z,3.73
2023-01-18T07:51:41.359Z,3.73
2023-01-18T07:54:09.901Z,3.60
2023-01-18T07:56:39.313Z,3.63
2023-01-18T07:59:09.378Z,4.01
2023-01-18T08:01:37.780Z,3.91
2023-01-18T08:04:06.271Z,3.42
2023-01-18T08:06:35.166Z,3.49
2023-01-18T08:09:03.315Z,3.87
2023-01-18T08:11:32.640Z,3.87
2023-01-18T08:14:00.797Z,4.20
2023-01-18T08:16:30.929Z,3.93
2023-01-18T08:19:00.428Z,3.60
2023-01-18T08:21:28.777Z,4.20
2023-01-18T08:23:56.786Z,4.56
2023-01-18T08:26:25.465Z,4.12
2023-01-18T08:28:53.428Z,4.12
2023-01-18T08:31:22.828Z,4.55
2023-01-18T08:33:53.085Z,4.48
2023-01-18T08:36:25.306Z,4.37
2023-01-18T08:38:57.422Z,4.23
2023-01-18T08:41:43.987Z,4.42
2023-01-18T08:44:21.931Z,4.67
2023-01-18T08:46:58.750Z,4.57
2023-01-18T08:49:58.326Z,4.17
2023-01-18T08:52:36.002Z,3.70
2023-01-18T08:55:30.006Z,3.70
2023-01-18T08:58:22.891Z,4.28
2023-01-18T09:01:12.594Z,4.95
2023-01-18T09:03:42.694Z,4.77
2023-01-18T09:06:18.181Z,5.04
2023-01-18T09:09:08.014Z,5.04
2023-01-18T09:11:37.975Z,5.18
2023-01-18T09:14:22.769Z,5.42
2023-01-18T09:16:52.535Z,5.28
2023-01-18T09:19:40.157Z,4.72
2023-01-18T09:22:24.320Z,4.96
2023-01-18T09:25:07.968Z,5.01
2023-01-18T09:28:02.546Z,4.65
2023-01-18T09:30:30.719Z,4.81
2023-01-18T09:32:59.688Z,5.16
2023-01-18T09:35:28.056Z,6.08
2023-01-18T09:37:57.908Z,6.57
2023-01-18T09:40:35.808Z,5.91
2023-01-18T09:43:04.481Z,6.35
2023-01-18T09:45:35.403Z,5.93
2023-01-18T09:48:06.939Z,5.50
2023-01-18T09:50:42.783Z,5.61
2023-01-18T09:53:24.865Z,5.71
2023-01-18T09:55:58.022Z,6.47
2023-01-18T09:58:41.661Z,6.74
2023-01-18T10:01:14.264Z,6.59
2023-01-18T10:03:50.400Z,5.90
2023-01-18T10:06:24.479Z,6.41
2023-01-18T10:08:59.622Z,6.89
2023-01-18T10:11:37.276Z,6.94
2023-01-18T10:14:09.291Z,7.25
2023-01-18T10:16:38.917Z,7.27
2023-01-18T10:19:16.834Z,6.79
2023-01-18T10:21:53.323Z,6.82
2023-01-18T10:24:55.381Z,6.30
2023-01-18T10:27:44.514Z,5.82
2023-01-18T10:30:30.239Z,5.99
2023-01-18T10:33:01.626Z,5.62
2023-01-18T10:35:34.049Z,6.55
2023-01-18T10:38:06.341Z,6.80
2023-01-18T10:40:38.484Z,6.82
2023-01-18T10:43:12.356Z,7.17
2023-01-18T10:45:40.605Z,7.42
2023-01-18T10:48:26.211Z,7.14
2023-01-18T10:50:56.974Z,6.71
2023-01-18T10:53:33.339Z,6.35
2023-01-18T10:56:05.990Z,6.37
2023-01-18T10:58:42.261Z,6.12
2023-01-18T11:01:16.632Z,6.16
2023-01-18T11:03:47.597Z,5.49
2023-01-18T11:06:19.359Z,5.83
2023-01-18T11:08:48.009Z,6.40
2023-01-18T11:11:51.571Z,5.74
2023-01-18T11:14:27.348Z,4.91
2023-01-18T11:16:59.693Z,5.64
2023-01-18T11:19:28.462Z,5.41
2023-01-18T11:21:57.003Z,5.89
2023-01-18T11:24:29.217Z,6.25
2023-01-18T11:27:01.747Z,6.47
2023-01-18T11:29:32.121Z,6.45
2023-01-18T11:32:05.160Z,6.78
2023-01-18T11:34:36.174Z,6.58
2023-01-18T11:37:05.277Z,6.45
2023-01-18T11:39:35.964Z,6.72
2023-01-18T11:42:25.486Z,7.07
2023-01-18T11:45:04.834Z,7.25
2023-01-18T11:47:54.744Z,5.83
2023-01-18T11:50:30.918Z,5.40
2023-01-18T11:53:05.913Z,5.05
2023-01-18T11:55:39.351Z,5.12
2023-01-18T11:58:17.974Z,5.25
2023-01-18T12:00:59.828Z,6.20
2023-01-18T12:03:46.751Z,6.77
2023-01-18T12:06:24.384Z,7.10
2023-01-18T12:09:13.571Z,6.98
2023-01-18T12:11:50.214Z,7.07
2023-01-18T12:14:43.351Z,7.12
2023-01-18T12:17:27.188Z,6.93
2023-01-18T12:20:10.572Z,6.46
2023-01-18T12:22:58.847Z,5.18
2023-01-18T12:25:41.813Z,6.08
2023-01-18T12:28:20.076Z,5.75
2023-01-18T12:31:05.724Z,5.91
2023-01-18T12:33:46.743Z,5.65
2023-01-18T12:36:30.154Z,6.22
2023-01-18T12:38:58.758Z,6.11
2023-01-18T12:41:39.678Z,5.83
2023-01-18T12:44:23.990Z,6.27
2023-01-18T12:47:07.430Z,6.78
2023-01-18T12:49:40.419Z,6.96
2023-01-18T12:52:18.504Z,7.13
2023-01-18T12:54:51.045Z,7.25
2023-01-18T12:57:20.635Z,7.39
2023-01-18T12:59:54.987Z,7.24
2023-01-18T13:02:33.277Z,7.14
2023-01-18T13:05:07.739Z,7.47
2023-01-18T13:07:40.441Z,6.91
2023-01-18T13:10:18.218Z,6.76
2023-01-18T13:12:47.176Z,6.70
2023-01-18T13:15:24.910Z,6.70
2023-01-18T13:18:03.926Z,6.53
2023-01-18T13:20:43.976Z,6.37
2023-01-18T13:23:26.604Z,6.06
2023-01-18T13:26:01.781Z,6.35
2023-01-18T13:28:30.524Z,6.68
2023-01-18T13:31:03.370Z,6.95
2023-01-18T13:33:35.431Z,6.55
2023-01-18T13:36:07.956Z,6.04
2023-01-18T13:38:41.856Z,5.93
2023-01-18T13:41:13.403Z,5.62
2023-01-18T13:44:02.752Z,5.73
2023-01-18T13:46:33.071Z,5.76
2023-01-18T13:49:36.617Z,5.98
2023-01-18T13:52:31.857Z,6.13
2023-01-18T13:55:25.722Z,5.95
2023-01-18T13:57:55.892Z,5.76
2023-01-18T14:00:25.962Z,5.21
2023-01-18T14:03:03.344Z,5.40
2023-01-18T14:05:38.169Z,5.08
2023-01-18T14:08:07.077Z,4.31
2023-01-18T14:10:38.600Z,4.26
2023-01-18T14:13:08.174Z,4.67
2023-01-18T14:15:52.479Z,4.75
2023-01-18T14:18:26.122Z,4.65
2023-01-18T14:21:31.041Z,5.02
2023-01-18T14:24:14.569Z,4.94
2023-01-18T14:26:44.319Z,4.77
2023-01-18T14:29:17.517Z,4.50
2023-01-18T14:31:49.807Z,4.99
2023-01-18T14:34:38.034Z,4.83
2023-01-18T14:37:27.163Z,3.86
2023-01-18T14:40:20.132Z,3.55
2023-01-18T14:42:55.282Z,3.41
2023-01-18T14:45:30.806Z,3.59
2023-01-18T14:48:01.959Z,3.51
2023-01-18T14:50:34.442Z,3.88
2023-01-18T14:53:05.899Z,3.77
2023-01-18T14:55:35.948Z,3.73
2023-01-18T14:58:12.088Z,4.17
2023-01-18T15:00:49.289Z,3.67
2023-01-18T15:03:26.298Z,3.28
2023-01-18T15:06:02.162Z,3.36
2023-01-18T15:08:35.174Z,3.02
2023-01-18T15:11:06.217Z,2.98
2023-01-18T15:13:38.704Z,2.70
2023-01-18T15:16:07.881Z,2.83
2023-01-18T15:18:35.921Z,3.00
2023-01-18T15:21:07.801Z,2.99
2023-01-18T15:23:38.751Z,2.89
2023-01-18T15:26:07.404Z,2.70
2023-01-18T15:28:36.080Z,2.81
2023-01-18T15:31:12.341Z,2.84
2023-01-18T15:33:41.108Z,3.25
2023-01-18T15:36:10.925Z,3.12
2023-01-18T15:38:40.626Z,3.07
2023-01-18T15:41:11.999Z,2.99
2023-01-18T15:43:43.513Z,2.73
2023-01-18T15:46:15.095Z,2.91
2023-01-18T15:48:52.378Z,3.08
2023-01-18T15:51:22.991Z,3.09
2023-01-18T15:53:56.502Z,2.85
2023-01-18T15:56:27.869Z,2.98
2023-01-18T15:58:57.467Z,3.01
2023-01-18T16:01:29.433Z,3.47
2023-01-18T16:03:59.857Z,3.36
2023-01-18T16:06:34.110Z,3.48
2023-01-18T16:09:11.799Z,3.09
2023-01-18T16:11:47.724Z,3.04
2023-01-18T16:14:25.274Z,2.78
2023-01-18T16:16:55.271Z,3.17
2023-01-18T16:19:28.467Z,2.81
2023-01-18T16:21:59.742Z,3.05
2023-01-18T16:24:33.669Z,3.11
2023-01-18T16:27:11.221Z,3.27
2023-01-18T16:29:43.919Z,3.35
2023-01-18T16:32:29.733Z,3.59
2023-01-18T16:34:59.999Z,3.51
2023-01-18T16:37:28.719Z,3.57
2023-01-18T16:39:58.619Z,3.28
2023-01-18T16:42:37.723Z,3.39
2023-01-18T16:45:13.815Z,2.91
2023-01-18T16:47:42.488Z,2.68
2023-01-18T16:50:15.486Z,2.91
2023-01-18T16:52:43.646Z,2.91
2023-01-18T16:55:15.486Z,3.31
2023-01-18T16:57:44.737Z,3.26
2023-01-18T17:00:18.664Z,3.20
2023-01-18T17:02:47.121Z,3.21
2023-01-18T17:05:16.119Z,3.06
2023-01-18T17:07:44.684Z,3.13
2023-01-18T17:10:21.886Z,3.21
2023-01-18T17:12:50.479Z,3.39
2023-01-18T17:15:20.098Z,2.98
2023-01-18T17:17:48.557Z,3.10
2023-01-18T17:20:19.924Z,2.61
2023-01-18T17:22:48.081Z,2.59
2023-01-18T17:25:16.487Z,2.26
2023-01-18T17:27:46.134Z,2.56
2023-01-18T17:30:18.042Z,2.68
2023-01-18T17:32:47.658Z,2.88
2023-01-18T17:35:17.402Z,2.89
2023-01-18T17:37:46.096Z,2.33
2023-01-18T17:40:23.438Z,2.30
2023-01-18T17:42:53.807Z,2.64
2023-01-18T17:45:22.321Z,2.50
2023-01-18T17:47:53.690Z,2.65
2023-01-18T17:50:25.074Z,2.57
2023-01-18T17:52:54.211Z,2.79
2023-01-18T17:55:27.412Z,2.49
2023-01-18T17:58:00.263Z,2.43
2023-01-18T18:00:28.439Z,2.52
2023-01-18T18:02:57.527Z,2.09
2023-01-18T18:05:26.505Z,2.53
2023-01-18T18:07:54.739Z,2.61
2023-01-18T18:10:22.981Z,2.63
2023-01-18T18:12:51.091Z,2.51
2023-01-18T18:15:22.359Z,2.78
2023-01-18T18:17:51.106Z,2.70
2023-01-18T18:20:21.403Z,2.51
2023-01-18T18:22:50.117Z,2.47
2023-01-18T18:25:18.204Z,2.65
2023-01-18T18:27:47.448Z,2.76
2023-01-18T18:30:17.617Z,2.61
2023-01-18T18:32:47.197Z,2.47
2023-01-18T18:35:25.022Z,2.54
2023-01-18T18:37:55.705Z,2.64
2023-01-18T18:40:24.743Z,2.36
2023-01-18T18:43:01.877Z,2.52
2023-01-18T18:45:32.628Z,2.11
2023-01-18T18:48:02.611Z,2.50
2023-01-18T18:50:32.138Z,2.26
2023-01-18T18:53:00.681Z,2.29
2023-01-18T18:55:28.924Z,2.49
2023-01-18T18:57:56.920Z,2.23
2023-01-18T19:00:25.762Z,2.24
2023-01-18T19:02:59.043Z,2.26
2023-01-18T19:05:29.096Z,2.39
2023-01-18T19:07:57.243Z,2.62
2023-01-18T19:10:27.734Z,2.52
2023-01-18T19:12:55.985Z,2.51
2023-01-18T19:15:24.478Z,2.24
2023-01-18T19:17:52.702Z,2.60
2023-01-18T19:20:22.908Z,2.66
2023-01-18T19:22:52.640Z,2.22
2023-01-18T19:25:21.549Z,2.31
2023-01-18T19:27:49.826Z,2.62
2023-01-18T19:30:20.225Z,2.14
2023-01-18T19:32:49.315Z,2.46
2023-01-18T19:35:18.446Z,2.62
2023-01-18T19:37:46.773Z,2.32
2023-01-18T19:40:17.620Z,2.37
2023-01-18T19:42:47.224Z,2.33
2023-01-18T19:45:26.796Z,2.23
2023-01-18T19:47:56.338Z,2.52
2023-01-18T19:50:25.015Z,2.59
2023-01-18T19:52:53.705Z,2.05
2023-01-18T19:55:23.486Z,2.23
2023-01-18T19:57:52.330Z,2.32
2023-01-18T20:00:21.156Z,2.30
2023-01-18T20:02:49.679Z,2.29
2023-01-18T20:05:18.121Z,2.41
2023-01-18T20:07:46.564Z,2.23
2023-01-18T20:10:16.811Z,2.29
2023-01-18T20:12:46.266Z,2.28
2023-01-18T20:15:17.484Z,2.41
2023-01-18T20:17:46.129Z,2.42
2023-01-18T20:20:20.936Z,2.48
2023-01-18T20:22:55.759Z,2.07
2023-01-18T20:25:23.999Z,2.27
2023-01-18T20:27:53.427Z,2.39
2023-01-18T20:30:21.763Z,2.11
2023-01-18T20:32:49.885Z,2.26
2023-01-18T20:35:18.139Z,2.04
2023-01-18T20:37:46.560Z,1.95
2023-01-18T20:40:14.761Z,2.04
2023-01-18T20:42:43.320Z,2.26
2023-01-18T20:45:13.115Z,2.27
2023-01-18T20:47:41.405Z,2.18
2023-01-18T20:50:10.564Z,2.31
2023-01-18T20:52:38.971Z,2.36
2023-01-18T20:55:08.745Z,1.96
2023-01-18T20:57:36.891Z,2.30
2023-01-18T21:00:06.622Z,2.30
2023-01-18T21:02:36.562Z,2.62
2023-01-18T21:05:05.193Z,2.52
2023-01-18T21:07:33.275Z,2.22
2023-01-18T21:10:01.574Z,2.23
2023-01-18T21:12:29.823Z,2.31
2023-01-18T21:14:58.153Z,2.50
2023-01-18T21:17:26.170Z,2.50
2023-01-18T21:19:59.189Z,2.37
2023-01-18T21:22:27.743Z,2.47
2023-01-18T21:24:57.183Z,2.61
2023-01-18T21:27:26.675Z,2.09
2023-01-18T21:29:55.003Z,2.37
2023-01-18T21:32:23.792Z,2.04
2023-01-18T21:34:51.875Z,2.14
2023-01-18T21:37:21.287Z,2.55
2023-01-18T21:39:49.779Z,2.71
2023-01-18T21:42:35.167Z,2.40
2023-01-18T21:45:20.643Z,2.02
2023-01-18T21:47:48.757Z,2.21
2023-01-18T21:50:35.225Z,2.22
2023-01-18T21:53:22.339Z,2.18
2023-01-18T21:55:52.205Z,1.90
2023-01-18T21:58:37.867Z,2.63
2023-01-18T22:01:12.140Z,2.18
2023-01-18T22:03:41.471Z,2.31
2023-01-18T22:06:09.541Z,2.42
2023-01-18T22:08:39.296Z,2.69
2023-01-18T22:11:07.699Z,2.52
2023-01-18T22:13:35.700Z,2.57
2023-01-18T22:16:06.663Z,2.75
2023-01-18T22:18:34.935Z,2.61
2023-01-18T22:21:02.918Z,2.34
2023-01-18T22:23:31.149Z,2.28
2023-01-18T22:26:00.546Z,2.21
2023-01-18T22:28:28.869Z,2.02
2023-01-18T22:30:58.691Z,2.06
2023-01-18T22:33:27.017Z,2.09
2023-01-18T22:35:59.010Z,2.16
2023-01-18T22:38:27.152Z,2.10
2023-01-18T22:41:03.555Z,2.14
2023-01-18T22:43:32.294Z,2.36
2023-01-18T22:46:01.088Z,2.43
2023-01-18T22:48:29.136Z,2.25
2023-01-18T22:50:59.420Z,2.26
2023-01-18T22:53:29.493Z,2.10
2023-01-18T22:56:04.095Z,1.95
2023-01-18T22:58:32.522Z,2.17
2023-01-18T23:01:01.410Z,1.80
2023-01-18T23:03:31.973Z,2.06
2023-01-18T23:06:01.660Z,1.74
2023-01-18T23:08:38.442Z,1.69
2023-01-18T23:11:09.248Z,2.03
2023-01-18T23:13:38.086Z,1.74
2023-01-18T23:16:28.726Z,1.69
2023-01-18T23:18:56.838Z,1.62
2023-01-18T23:21:25.278Z,1.15
2023-01-18T23:23:53.958Z,1.37
2023-01-18T23:26:23.668Z,1.27
2023-01-18T23:28:52.453Z,1.39
2023-01-18T23:31:20.800Z,1.46
2023-01-18T23:33:49.373Z,1.54
2023-01-18T23:36:17.968Z,1.45
2023-01-18T23:39:04.051Z,1.66
2023-01-18T23:41:51.336Z,1.77
2023-01-18T23:44:37.882Z,1.52
2023-01-18T23:47:23.557Z,1.66
2023-01-18T23:50:09.423Z,1.56
2023-01-18T23:52:55.222Z,1.21
2023-01-18T23:55:23.489Z,1.57
2023-01-18T23:57:53.130Z,1.52
